Domov               UVHVVR             MKGP            O straneh              
ZDRAVSTVENO VARSTVO RASTLIN
  MREŽA AGROMET. POSTAJ
 ► PROGNOSTIČNA OBVESTILA
AGROMETEOROLOŠKI PODATKI -
ARSO
OBVLADOVANJE TVEGANJ ZARADI
NEUGODNIH VREMENSKIH RAZMER
  ► NARAVNE NESREČE
  ► SUŠA/MOČA
  ► NAMAKANJE
  ► ŽLED (gozdarstvo)
KARTOGRAFSKI PRIKAZI
SPLETNE POVEZAVE
PROJEKTI IN PUBLIKACIJE

AGROMETEOROLOŠKA MREŽA: VREMENSKE POSTAJE IN FENOLOŠKA OPAZOVANJA

Pregled podatkov za lokacijo Pradisiol, meteorološka postaja 861649

Pregled senzorjev na lokaciji

ID Ime Zadnja
vrednost
Datum
zadnje
spremembe
Tip
senzorja
4076 Omočenost lista (U) 1 U 25.3.2019 01:00 A730WET
4077 Padavine (mm) 0 mm 25.3.2019 01:00 Rain-O-Matic
4075 Relativna vlaga 2 m (% RH) 90,8 % RH 25.3.2019 01:00 50YA
4074 Temperatura 2 m (°C) 1,94 °C 25.3.2019 01:00 50YA

Pregled podatkov zadnjih 24 ur

Zap.
št.
Datum in čas Pradisiol
Omočenost
lista
Padavine Relativna
vlaga
2
m
Temperatura
2
m
1 25.3.2019 00:00
2 24.3.2019 23:30 1 0 90,4 2,1
3 24.3.2019 23:00 0 0 90,1 2,5
4 24.3.2019 22:30 0 0 89,2 2,7
5 24.3.2019 22:00 0 0 87,3 3,1
6 24.3.2019 21:30 0 0 86,1 3,7
7 24.3.2019 21:00 0 0 84,1 4,3
8 24.3.2019 20:30 0 0 81,2 5,5
9 24.3.2019 20:00 0 0 78,1 6,6
10 24.3.2019 19:30 0 0 73,5 8,1
11 24.3.2019 19:00 0 0 64,3 10,5
12 24.3.2019 18:30 0 0 50,8 14,6
13 24.3.2019 18:00 0 0 42,5 17,5
14 24.3.2019 17:30 0 0 40,6 18,3
15 24.3.2019 17:00 0 0 40,5 18,3
16 24.3.2019 16:30 0 0 41,5 18,3
17 24.3.2019 16:00 0 0 42,2 18,1
18 24.3.2019 15:30 0 0 42,3 18,4
19 24.3.2019 15:00 0 0 43,1 18,5
20 24.3.2019 14:30 0 0 43,9 18,7
21 24.3.2019 14:00 0 0 45,1 18,5
22 24.3.2019 13:30 0 0 45,1 18,2
23 24.3.2019 13:00 0 0 46,5 18,2
24 24.3.2019 12:30 0 0 45,1 18,8
25 24.3.2019 12:00 0 0 38,5 19,7
26 24.3.2019 11:30 0 0 34,4 20,3
27 24.3.2019 11:00 0 0 33,9 20,2
28 24.3.2019 10:30 0 0 32,7 20,3
29 24.3.2019 10:00 0 0 32,1 20,4
30 24.3.2019 09:30 0 0 34,6 20,4
31 24.3.2019 09:00 0 0 49,4 18
32 24.3.2019 08:30 0 0 63 13,7
33 24.3.2019 08:00 0 0 74,8 9,7
34 24.3.2019 07:30 3 0 87,8 5,5
35 24.3.2019 07:00 10 0 94,6 1,6
36 24.3.2019 06:30 9 0 94,6 0
37 24.3.2019 06:00 6 0 94 -0,2
38 24.3.2019 05:30 3 0 93,4 0
39 24.3.2019 05:00 2 0 92,7 0,5
40 24.3.2019 04:30 1 0 91,3 0,8
41 24.3.2019 04:00 1 0 90,6 1,3
42 24.3.2019 03:30 1 0 89,5 1,7
43 24.3.2019 03:00 1 0 88,2 2,5
44 24.3.2019 02:30 1 0 88,2 2,6
45 24.3.2019 02:00 1 0 90,3 1,9
46 24.3.2019 01:30 0 0 89,6 2,3
47 24.3.2019 01:00 0 0 90,8 1,8
48 24.3.2019 00:30 0 0 90,4 1,6
© 2011 Ministrstvo za kmetijstvo, gozdarstvo in prehrano. Vse pravice pridržane.